createdAt,value
2019-05-21T00:02:06.599Z,22.80
2019-05-21T00:04:36.371Z,27.80
2019-05-21T00:07:06.372Z,24.17
2019-05-21T00:09:36.349Z,30.17
2019-05-21T00:12:06.303Z,24.83
2019-05-21T00:14:36.236Z,30.23
2019-05-21T00:17:05.887Z,26.00
2019-05-21T00:19:35.676Z,26.03
2019-05-21T00:22:05.339Z,23.37
2019-05-21T00:24:35.134Z,26.57
2019-05-21T00:27:15.511Z,23.13
2019-05-21T00:30:22.769Z,26.57
2019-05-21T00:33:29.107Z,22.60
2019-05-21T00:36:36.498Z,26.10
2019-05-21T00:39:42.975Z,21.13
2019-05-21T00:42:16.154Z,26.23
2019-05-21T00:44:45.951Z,22.03
2019-05-21T00:47:15.751Z,27.67
2019-05-21T00:49:45.589Z,20.77
2019-05-21T00:52:15.799Z,23.27
2019-05-21T00:54:45.572Z,20.00
2019-05-21T00:57:15.795Z,24.20
2019-05-21T00:59:45.942Z,21.87
2019-05-21T01:02:15.805Z,24.60
2019-05-21T01:04:59.748Z,21.33
2019-05-21T01:07:17.066Z,24.60
2019-05-21T01:09:46.906Z,21.80
2019-05-21T01:12:16.727Z,22.83
2019-05-21T01:14:46.526Z,21.80
2019-05-21T01:17:16.632Z,24.47
2019-05-21T01:19:46.383Z,21.43
2019-05-21T01:22:16.998Z,27.57
2019-05-21T01:24:46.756Z,21.70
2019-05-21T01:27:16.654Z,24.83
2019-05-21T01:29:47.069Z,22.40
2019-05-21T01:32:16.847Z,23.27
2019-05-21T01:34:46.758Z,25.27
2019-05-21T01:37:16.750Z,22.20
2019-05-21T01:39:49.485Z,26.60
2019-05-21T01:42:19.474Z,23.10
2019-05-21T01:44:49.353Z,25.37
2019-05-21T01:47:19.098Z,25.13
2019-05-21T01:49:49.255Z,28.70
2019-05-21T01:52:19.506Z,22.90
2019-05-21T01:54:49.392Z,27.37
2019-05-21T01:57:19.695Z,23.87
2019-05-21T01:59:49.870Z,27.43
2019-05-21T02:02:19.900Z,25.13
2019-05-21T02:04:50.435Z,27.77
2019-05-21T02:07:20.225Z,26.63
2019-05-21T02:09:58.848Z,28.60
2019-05-21T02:12:28.686Z,24.37
2019-05-21T02:14:58.540Z,29.67
2019-05-21T02:17:28.331Z,31.40
2019-05-21T02:19:58.135Z,24.83
2019-05-21T02:22:27.973Z,30.97
2019-05-21T02:24:57.824Z,26.13
2019-05-21T02:27:27.649Z,30.03
2019-05-21T02:29:57.514Z,25.57
2019-05-21T02:32:27.527Z,30.87
2019-05-21T02:34:57.677Z,26.87
2019-05-21T02:37:27.956Z,30.50
2019-05-21T02:39:57.703Z,27.83
2019-05-21T02:42:27.914Z,30.80
2019-05-21T02:45:02.454Z,27.03
2019-05-21T02:47:32.559Z,34.67
2019-05-21T02:50:02.397Z,34.30
2019-05-21T02:52:32.151Z,37.83
2019-05-21T02:55:02.082Z,29.60
2019-05-21T02:57:43.501Z,37.20
2019-05-21T03:00:38.460Z,33.83
2019-05-21T03:03:09.492Z,36.93
2019-05-21T03:05:39.410Z,34.43
2019-05-21T03:08:09.247Z,35.30
2019-05-21T03:10:39.106Z,34.73
2019-05-21T03:13:08.933Z,35.83
2019-05-21T03:15:38.906Z,30.70
2019-05-21T03:18:08.749Z,34.73
2019-05-21T03:20:38.827Z,31.83
2019-05-21T03:23:08.581Z,34.73
2019-05-21T03:25:38.744Z,26.57
2019-05-21T03:28:08.559Z,33.53
2019-05-21T03:30:38.903Z,30.50
2019-05-21T03:33:08.704Z,36.07
2019-05-21T03:35:39.180Z,32.17
2019-05-21T03:38:09.347Z,34.10
2019-05-21T03:40:39.317Z,35.37
2019-05-21T03:43:09.146Z,30.03
2019-05-21T03:45:39.001Z,31.40
2019-05-21T03:48:09.329Z,29.70
2019-05-21T03:50:39.176Z,36.40
2019-05-21T03:53:09.091Z,28.60
2019-05-21T03:55:39.009Z,35.03
2019-05-21T03:58:09.703Z,26.13
2019-05-21T04:00:39.602Z,35.30
2019-05-21T04:03:09.460Z,35.37
2019-05-21T04:05:39.564Z,32.77
2019-05-21T04:08:09.335Z,36.27
2019-05-21T04:10:39.109Z,31.50
2019-05-21T04:13:09.448Z,28.77
2019-05-21T04:15:54.575Z,34.53
2019-05-21T04:18:41.211Z,26.77
2019-05-21T04:21:11.283Z,30.67
2019-05-21T04:23:41.183Z,32.93
2019-05-21T04:26:10.997Z,40.53
2019-05-21T04:28:44.788Z,36.40
2019-05-21T04:31:24.167Z,32.43
2019-05-21T04:33:54.192Z,35.43
2019-05-21T04:36:24.286Z,33.20
2019-05-21T04:45:31.744Z,34.87
2019-05-21T04:48:17.867Z,27.70
2019-05-21T04:57:53.496Z,34.80
2019-05-21T05:00:46.282Z,28.47
2019-05-21T05:03:16.128Z,36.87
2019-05-21T05:05:57.319Z,33.10
2019-05-21T05:08:31.573Z,38.17
2019-05-21T05:11:17.750Z,32.33
2019-05-21T05:13:51.313Z,29.40
2019-05-21T05:16:27.511Z,37.30
2019-05-21T05:18:57.829Z,33.43
2019-05-21T05:21:35.474Z,32.13
2019-05-21T05:24:05.699Z,40.43
2019-05-21T05:27:22.517Z,37.33
2019-05-21T05:29:58.705Z,36.93
2019-05-21T05:33:09.943Z,34.87
2019-05-21T05:35:20.653Z,33.13
2019-05-21T05:37:56.068Z,29.20
2019-05-21T05:40:32.376Z,31.07
2019-05-21T05:46:13.477Z,28.43
2019-05-21T05:48:45.119Z,31.33
2019-05-21T05:51:24.635Z,27.87
2019-05-21T05:54:00.600Z,30.43
2019-05-21T05:56:37.694Z,28.20
2019-05-21T05:59:07.848Z,27.87
2019-05-21T06:01:39.201Z,24.80
2019-05-21T06:04:09.475Z,25.47
2019-05-21T06:06:41.428Z,21.83
2019-05-21T06:09:13.037Z,23.40
2019-05-21T06:11:45.387Z,22.77
2019-05-21T06:14:20.697Z,20.97
2019-05-21T06:17:00.541Z,26.17
2019-05-21T06:19:43.774Z,20.50
2019-05-21T06:22:23.996Z,25.00
2019-05-21T06:25:09.070Z,22.83
2019-05-21T06:27:35.174Z,22.07
2019-05-21T06:30:08.915Z,22.90
2019-05-21T06:33:17.450Z,24.47
2019-05-21T06:35:29.169Z,20.50
2019-05-21T06:38:16.598Z,26.23
2019-05-21T06:40:42.394Z,21.47
2019-05-21T06:43:45.144Z,27.30
2019-05-21T06:46:19.173Z,23.10
2019-05-21T06:48:57.502Z,27.07
2019-05-21T06:51:35.705Z,21.47
2019-05-21T06:54:08.674Z,24.00
2019-05-21T06:56:39.525Z,25.27
2019-05-21T06:59:25.589Z,28.60
2019-05-21T07:01:54.250Z,25.77
2019-05-21T07:04:44.521Z,28.43
2019-05-21T07:07:23.118Z,25.43
2019-05-21T07:10:07.812Z,28.13
2019-05-21T07:12:46.851Z,28.30
2019-05-21T07:15:22.356Z,23.27
2019-05-21T07:17:55.205Z,26.17
2019-05-21T07:20:37.065Z,20.27
2019-05-21T07:23:11.658Z,26.73
2019-05-21T07:25:47.597Z,20.63
2019-05-21T07:28:25.122Z,25.00
2019-05-21T07:30:58.361Z,21.80
2019-05-21T07:33:36.049Z,23.27
2019-05-21T07:36:06.676Z,21.20
2019-05-21T07:38:52.620Z,26.13
2019-05-21T07:41:10.466Z,21.70
2019-05-21T07:43:40.196Z,24.57
2019-05-21T07:46:10.048Z,20.73
2019-05-21T07:48:39.721Z,23.43
2019-05-21T07:51:09.460Z,19.80
2019-05-21T07:53:39.238Z,19.70
2019-05-21T07:56:08.944Z,26.07
2019-05-21T07:58:38.615Z,18.43
2019-05-21T08:01:08.348Z,26.17
2019-05-21T08:03:38.070Z,18.77
2019-05-21T08:06:07.829Z,23.43
2019-05-21T08:08:37.788Z,20.27
2019-05-21T08:11:08.020Z,22.73
2019-05-21T08:13:37.814Z,17.47
2019-05-21T08:16:07.494Z,21.30
2019-05-21T08:18:37.289Z,20.90
2019-05-21T08:21:07.230Z,22.67
2019-05-21T08:23:36.960Z,20.83
2019-05-21T08:26:06.698Z,18.77
2019-05-21T08:28:36.632Z,19.77
2019-05-21T08:31:06.498Z,24.10
2019-05-21T08:33:40.102Z,17.60
2019-05-21T08:36:19.030Z,19.03
2019-05-21T08:38:53.107Z,23.60
2019-05-21T08:41:28.154Z,25.33
2019-05-21T08:43:58.896Z,26.53
2019-05-21T08:46:28.716Z,25.40
2019-05-21T08:48:58.574Z,22.73
2019-05-21T08:51:29.042Z,24.13
2019-05-21T08:53:58.773Z,23.43
2019-05-21T08:56:28.560Z,27.17
2019-05-21T08:58:58.614Z,22.20
2019-05-21T09:01:28.528Z,21.97
2019-05-21T09:03:58.604Z,20.03
2019-05-21T09:06:28.639Z,25.80
2019-05-21T09:08:59.271Z,22.07
2019-05-21T09:11:29.083Z,17.73
2019-05-21T09:13:59.127Z,18.50
2019-05-21T09:16:28.894Z,19.20
2019-05-21T09:18:58.965Z,19.10
2019-05-21T09:21:28.778Z,21.20
2019-05-21T09:23:58.556Z,19.70
2019-05-21T09:26:28.642Z,19.23
2019-05-21T09:28:58.431Z,19.03
2019-05-21T09:31:28.457Z,20.50
2019-05-21T09:33:58.526Z,20.13
2019-05-21T09:36:28.437Z,20.03
2019-05-21T09:38:58.201Z,21.27
2019-05-21T09:41:27.885Z,23.73
2019-05-21T09:43:58.206Z,22.10
2019-05-21T09:46:28.126Z,21.70
2019-05-21T09:48:57.856Z,22.03
2019-05-21T09:51:27.652Z,21.80
2019-05-21T09:53:57.444Z,21.70
2019-05-21T09:56:34.649Z,25.40
2019-05-21T09:59:13.151Z,23.30
2019-05-21T10:01:47.956Z,23.87
2019-05-21T10:04:16.726Z,28.97
2019-05-21T10:06:46.475Z,21.77
2019-05-21T10:09:17.842Z,22.77
2019-05-21T10:11:49.133Z,25.23
2019-05-21T10:14:19.142Z,19.63
2019-05-21T10:16:48.874Z,20.33
2019-05-21T10:19:18.666Z,21.50
2019-05-21T10:21:48.396Z,20.40
2019-05-21T10:24:18.238Z,19.87
2019-05-21T10:26:48.023Z,19.77
2019-05-21T10:29:17.790Z,22.50
2019-05-21T10:31:50.722Z,17.47
2019-05-21T10:34:20.808Z,16.90
2019-05-21T10:36:50.807Z,17.87
2019-05-21T10:39:20.880Z,18.03
2019-05-21T10:41:50.784Z,18.67
2019-05-21T10:44:20.523Z,17.40
2019-05-21T10:46:50.338Z,14.80
2019-05-21T10:49:20.661Z,16.70
2019-05-21T10:51:50.366Z,16.00
2019-05-21T10:54:20.180Z,18.87
2019-05-21T10:56:49.988Z,17.77
2019-05-21T10:59:19.826Z,21.80
2019-05-21T11:01:53.843Z,17.73
2019-05-21T11:04:25.574Z,24.83
2019-05-21T11:06:55.382Z,18.73
2019-05-21T11:09:25.743Z,23.80
2019-05-21T11:11:55.486Z,18.80
2019-05-21T11:14:25.559Z,19.30
2019-05-21T11:16:55.380Z,19.63
2019-05-21T11:19:26.264Z,25.33
2019-05-21T11:21:56.417Z,18.27
2019-05-21T11:24:26.529Z,22.83
2019-05-21T11:26:56.213Z,18.70
2019-05-21T11:29:26.020Z,18.37
2019-05-21T11:31:57.690Z,19.00
2019-05-21T11:34:27.262Z,25.43
2019-05-21T11:36:57.087Z,18.63
2019-05-21T11:39:27.417Z,25.30
2019-05-21T11:41:57.202Z,20.03
2019-05-21T11:44:27.143Z,19.57
2019-05-21T11:46:57.005Z,20.10
2019-05-21T11:49:27.029Z,19.40
2019-05-21T11:51:56.862Z,23.60
2019-05-21T11:54:26.594Z,20.30
2019-05-21T11:56:56.385Z,19.67
2019-05-21T11:59:26.138Z,21.40
2019-05-21T12:01:55.938Z,20.90
2019-05-21T12:04:25.777Z,18.23
2019-05-21T12:06:57.104Z,19.50
2019-05-21T12:09:26.819Z,21.20
2019-05-21T12:11:56.585Z,22.00
2019-05-21T12:14:26.343Z,20.83
2019-05-21T12:16:56.475Z,20.30
2019-05-21T12:19:26.187Z,25.70
2019-05-21T12:21:56.167Z,20.77
2019-05-21T12:24:27.628Z,23.20
2019-05-21T12:26:57.740Z,19.00
2019-05-21T12:29:27.510Z,23.43
2019-05-21T12:31:57.979Z,21.67
2019-05-21T12:34:27.729Z,23.00
2019-05-21T12:36:57.892Z,23.37
2019-05-21T12:39:27.677Z,25.20
2019-05-21T12:41:57.519Z,21.90
2019-05-21T12:44:27.375Z,21.07
2019-05-21T12:46:57.117Z,19.33
2019-05-21T12:49:27.283Z,19.40
2019-05-21T12:51:57.130Z,21.43
2019-05-21T12:54:27.142Z,23.07
2019-05-21T12:56:56.873Z,23.27
2019-05-21T12:59:26.638Z,20.50
2019-05-21T13:01:56.440Z,21.03
2019-05-21T13:04:26.257Z,23.47
2019-05-21T13:06:56.025Z,18.53
2019-05-21T13:09:32.651Z,18.33
2019-05-21T13:11:57.284Z,20.37
2019-05-21T13:14:27.043Z,20.60
2019-05-21T13:16:56.894Z,18.03
2019-05-21T13:19:26.708Z,19.87
2019-05-21T13:21:56.522Z,20.33
2019-05-21T13:24:26.733Z,16.63
2019-05-21T13:26:56.500Z,16.83
2019-05-21T13:29:26.553Z,15.47
2019-05-21T13:31:56.451Z,14.63
2019-05-21T13:34:27.004Z,17.07
2019-05-21T13:36:57.103Z,15.90
2019-05-21T13:39:27.119Z,17.47
2019-05-21T13:41:56.861Z,15.60
2019-05-21T13:44:26.751Z,18.20
2019-05-21T13:46:56.726Z,15.90
2019-05-21T13:49:27.044Z,16.27
2019-05-21T13:51:57.278Z,15.03
2019-05-21T13:54:27.280Z,18.37
2019-05-21T13:56:57.115Z,16.53
2019-05-21T13:59:27.403Z,15.77
2019-05-21T14:01:57.416Z,15.70
2019-05-21T14:04:27.197Z,16.77
2019-05-21T14:06:57.135Z,14.67
2019-05-21T14:09:28.722Z,13.83
2019-05-21T14:11:59.125Z,17.10
2019-05-21T14:14:29.417Z,14.57
2019-05-21T14:16:59.732Z,17.37
2019-05-21T14:19:29.468Z,14.03
2019-05-21T14:21:59.355Z,16.10
2019-05-21T14:24:29.592Z,13.77
2019-05-21T14:26:59.829Z,18.63
2019-05-21T14:29:29.602Z,13.97
2019-05-21T14:31:59.848Z,17.17
2019-05-21T14:34:29.841Z,14.40
2019-05-21T14:37:01.106Z,16.47
2019-05-21T14:39:31.252Z,14.13
2019-05-21T14:42:01.106Z,14.90
2019-05-21T14:44:30.947Z,13.07
2019-05-21T14:47:03.269Z,12.03
2019-05-21T14:49:33.094Z,14.20
2019-05-21T14:52:03.185Z,11.47
2019-05-21T14:54:33.366Z,10.47
2019-05-21T14:57:05.888Z,10.07
2019-05-21T15:02:49.087Z,9.50
2019-05-21T15:05:19.193Z,16.97
2019-05-21T15:07:55.067Z,9.00
2019-05-21T15:10:47.215Z,8.83
2019-05-21T15:13:08.759Z,10.03
2019-05-21T15:15:36.803Z,8.60
2019-05-21T15:18:06.796Z,8.07
2019-05-21T15:20:47.093Z,9.70
2019-05-21T15:23:16.890Z,7.50
2019-05-21T15:25:47.074Z,5.77
2019-05-21T15:28:17.124Z,9.43
2019-05-21T15:30:48.797Z,7.53
2019-05-21T15:33:18.574Z,7.00
2019-05-21T15:35:49.819Z,9.43
2019-05-21T15:38:21.155Z,6.77
2019-05-21T15:41:08.415Z,8.03
2019-05-21T15:43:22.969Z,6.80
2019-05-21T15:45:52.832Z,6.60
2019-05-21T15:48:26.330Z,7.80
2019-05-21T15:51:04.650Z,7.40
2019-05-21T15:53:55.375Z,8.87
2019-05-21T15:56:25.233Z,6.77
2019-05-21T15:59:05.379Z,7.17
2019-05-21T16:01:40.568Z,6.40
2019-05-21T16:04:16.079Z,8.07
2019-05-21T16:06:44.420Z,6.40
2019-05-21T16:09:14.152Z,9.03
2019-05-21T16:11:43.998Z,6.93
2019-05-21T16:14:13.803Z,8.20
2019-05-21T16:16:46.671Z,7.90
2019-05-21T16:19:16.480Z,9.23
2019-05-21T16:21:50.600Z,8.20
2019-05-21T16:24:20.411Z,7.67
2019-05-21T16:26:50.139Z,10.07
2019-05-21T16:29:19.831Z,7.10
2019-05-21T16:31:49.945Z,9.93
2019-05-21T16:34:19.667Z,7.13
2019-05-21T16:36:49.477Z,9.10
2019-05-21T16:39:21.226Z,7.10
2019-05-21T16:41:51.024Z,7.50
2019-05-21T16:44:20.825Z,8.83
2019-05-21T16:46:50.621Z,7.90
2019-05-21T16:49:20.423Z,9.80
2019-05-21T16:51:50.225Z,7.93
2019-05-21T16:54:20.019Z,10.33
2019-05-21T16:56:50.314Z,7.70
2019-05-21T16:59:22.183Z,8.87
2019-05-21T17:01:52.149Z,7.70
2019-05-21T17:04:21.991Z,9.50
2019-05-21T17:06:58.181Z,6.87
2019-05-21T17:09:28.446Z,7.70
2019-05-21T17:12:00.329Z,7.20
2019-05-21T17:14:30.672Z,7.00
2019-05-21T17:17:00.797Z,9.87
2019-05-21T17:19:30.935Z,7.47
2019-05-21T17:22:00.929Z,7.43
2019-05-21T17:24:33.022Z,9.43
2019-05-21T17:27:10.133Z,9.03
2019-05-21T17:29:40.275Z,10.03
2019-05-21T17:32:10.253Z,9.30
2019-05-21T17:34:47.894Z,9.50
2019-05-21T17:37:19.024Z,9.03
2019-05-21T17:39:49.182Z,11.47
2019-05-21T17:42:19.041Z,9.27
2019-05-21T17:44:49.010Z,8.73
2019-05-21T17:47:19.227Z,8.30
2019-05-21T17:49:49.151Z,8.87
2019-05-21T17:52:19.570Z,8.40
2019-05-21T17:54:56.769Z,8.03
2019-05-21T17:57:22.079Z,8.00
2019-05-21T17:59:52.051Z,10.43
2019-05-21T18:02:23.197Z,8.60
2019-05-21T18:04:56.997Z,8.90
2019-05-21T18:07:26.852Z,8.87
2019-05-21T18:10:00.654Z,9.20
2019-05-21T18:12:32.358Z,8.77
2019-05-21T18:15:06.734Z,8.10
2019-05-21T18:17:37.549Z,10.43
2019-05-21T18:20:08.546Z,11.30
2019-05-21T18:22:40.161Z,8.70
2019-05-21T18:25:14.272Z,8.77
2019-05-21T18:27:44.746Z,8.50
2019-05-21T18:30:15.883Z,8.77
2019-05-21T18:32:45.852Z,9.47
2019-05-21T18:35:16.086Z,9.37
2019-05-21T18:37:55.707Z,9.30
2019-05-21T18:40:26.652Z,8.50
2019-05-21T18:42:56.638Z,9.93
2019-05-21T18:45:26.414Z,9.47
2019-05-21T18:48:00.727Z,9.20
2019-05-21T18:50:36.254Z,9.37
2019-05-21T18:53:01.851Z,10.33
2019-05-21T18:55:31.751Z,12.33
2019-05-21T18:58:01.586Z,8.83
2019-05-21T19:00:31.859Z,9.33
2019-05-21T19:03:04.897Z,9.20
2019-05-21T19:05:35.145Z,11.27
2019-05-21T19:08:09.726Z,9.47
2019-05-21T19:10:42.519Z,8.90
2019-05-21T19:13:12.407Z,8.73
2019-05-21T19:15:42.713Z,8.60
2019-05-21T19:18:12.529Z,10.17
2019-05-21T19:20:42.263Z,10.13
2019-05-21T19:23:12.253Z,11.73
2019-05-21T19:25:41.988Z,10.03
2019-05-21T19:28:11.949Z,10.00
2019-05-21T19:30:42.027Z,11.83
2019-05-21T19:33:12.487Z,10.93
2019-05-21T19:35:42.282Z,11.77
2019-05-21T19:38:11.972Z,10.20
2019-05-21T19:40:41.772Z,10.03
2019-05-21T19:43:14.093Z,9.13
2019-05-21T19:45:43.944Z,14.13
2019-05-21T19:48:13.765Z,11.27
2019-05-21T19:50:43.869Z,11.53
2019-05-21T19:53:13.618Z,17.00
2019-05-21T19:55:47.191Z,21.13
2019-05-21T19:58:17.073Z,18.33
2019-05-21T20:00:48.583Z,47.20
2019-05-21T20:03:19.126Z,24.27
2019-05-21T20:05:50.593Z,20.80
2019-05-21T20:08:20.624Z,23.30
2019-05-21T20:10:53.219Z,21.43
2019-05-21T20:13:32.258Z,27.23
2019-05-21T20:15:55.855Z,24.00
2019-05-21T20:18:26.094Z,24.77
2019-05-21T20:20:57.117Z,28.27
2019-05-21T20:23:27.178Z,23.67
2019-05-21T20:25:57.321Z,23.97
2019-05-21T20:28:27.232Z,29.13
2019-05-21T20:30:57.468Z,24.37
2019-05-21T20:33:28.435Z,24.67
2019-05-21T20:35:59.011Z,25.90
2019-05-21T20:38:29.637Z,30.77
2019-05-21T20:40:59.410Z,26.23
2019-05-21T20:43:29.273Z,27.17
2019-05-21T20:45:59.875Z,26.63
2019-05-21T20:48:37.450Z,27.27
2019-05-21T20:51:09.138Z,30.17
2019-05-21T20:53:39.083Z,26.13
2019-05-21T20:56:09.140Z,29.83
2019-05-21T20:58:39.402Z,25.50
2019-05-21T21:01:09.589Z,29.77
2019-05-21T21:03:40.732Z,26.47
2019-05-21T21:06:12.691Z,29.87
2019-05-21T21:08:44.615Z,26.60
2019-05-21T21:11:15.688Z,29.73
2019-05-21T21:13:46.145Z,25.53
2019-05-21T21:16:16.622Z,25.23
2019-05-21T21:18:48.439Z,30.10
2019-05-21T21:21:18.902Z,26.60
2019-05-21T21:23:50.657Z,25.87
2019-05-21T21:26:20.925Z,26.73
2019-05-21T21:28:50.758Z,26.33
2019-05-21T21:31:20.855Z,26.17
2019-05-21T21:33:57.317Z,27.63
2019-05-21T21:36:28.694Z,26.33
2019-05-21T21:38:59.694Z,27.43
2019-05-21T21:41:30.061Z,29.70
2019-05-21T21:44:00.098Z,27.53
2019-05-21T21:46:29.830Z,28.20
2019-05-21T21:49:00.225Z,25.47
2019-05-21T21:51:30.089Z,27.47
2019-05-21T21:54:00.267Z,32.03
2019-05-21T21:56:31.333Z,27.40
2019-05-21T21:59:01.297Z,28.20
2019-05-21T22:01:41.765Z,28.37
2019-05-21T22:04:14.025Z,33.40
2019-05-21T22:06:45.920Z,27.43
2019-05-21T22:09:18.165Z,30.17
2019-05-21T22:11:49.330Z,29.67
2019-05-21T22:14:19.443Z,31.20
2019-05-21T22:16:51.828Z,30.37
2019-05-21T22:19:23.085Z,30.90
2019-05-21T22:21:53.199Z,30.83
2019-05-21T22:24:23.683Z,35.13
2019-05-21T22:26:53.979Z,30.03
2019-05-21T22:29:23.873Z,29.90
2019-05-21T22:31:53.735Z,30.43
2019-05-21T22:34:23.802Z,34.07
2019-05-21T22:36:53.710Z,30.43
2019-05-21T22:39:24.044Z,29.87
2019-05-21T22:41:53.893Z,33.23
2019-05-21T22:44:23.708Z,27.60
2019-05-21T22:46:53.560Z,28.77
2019-05-21T22:49:23.722Z,34.17
2019-05-21T22:51:53.493Z,27.10
2019-05-21T22:54:23.639Z,34.10
2019-05-21T22:56:53.424Z,27.47
2019-05-21T22:59:23.186Z,25.07
2019-05-21T23:01:55.070Z,24.97
2019-05-21T23:04:25.492Z,22.17
2019-05-21T23:06:55.349Z,24.40
2019-05-21T23:09:25.107Z,21.60
2019-05-21T23:11:55.281Z,25.03
2019-05-21T23:14:25.264Z,23.40
2019-05-21T23:16:55.626Z,30.07
2019-05-21T23:19:27.017Z,26.40
2019-05-21T23:21:57.950Z,25.83
2019-05-21T23:24:29.681Z,27.27
2019-05-21T23:26:59.507Z,25.73
2019-05-21T23:29:29.336Z,25.23
2019-05-21T23:31:59.167Z,30.00
2019-05-21T23:34:31.651Z,24.73
2019-05-21T23:37:02.712Z,29.50
2019-05-21T23:39:34.163Z,24.53
2019-05-21T23:42:05.920Z,25.40
2019-05-21T23:44:36.281Z,24.47
2019-05-21T23:47:08.360Z,25.17
2019-05-21T23:49:38.845Z,25.83
2019-05-21T23:52:08.730Z,30.93
2019-05-21T23:54:38.471Z,22.63
2019-05-21T23:57:10.530Z,23.20
2019-05-21T23:59:41.060Z,27.40
